Time;durP1;ratioP1;P1;durP2;ratioP2;P2;SDS_P1;SDS_P2;PMS_P1;PMS_P2;Temp;Humidity;BMP_temperature;BMP_pressure;BME280_temperature;BME280_humidity;BME280_pressure;Samples;Min_cycle;Max_cycle;Signal;HPM_P1;HPM_P2
2023/03/08 00:00:10;;;;;;;6.13;4.07;;;;;;;;;;5070384;28;20454;-68
2023/03/08 00:02:37;;;;;;;5.10;2.87;;;;;;;;;;5070637;28;20450;-68
2023/03/08 00:05:06;;;;;;;5.27;3.30;;;;;;;;;;5069949;28;20441;-69
2023/03/08 00:07:34;;;;;;;4.60;3.00;;;;;;;;;;5069936;28;20433;-69
2023/03/08 00:10:01;;;;;;;6.47;3.10;;;;;;;;;;5069901;28;20448;-68
2023/03/08 00:12:28;;;;;;;4.67;3.93;;;;;;;;;;5070527;28;20819;-69
2023/03/08 00:14:55;;;;;;;6.23;3.43;;;;;;;;;;5069944;28;20454;-69
2023/03/08 00:17:23;;;;;;;4.47;2.97;;;;;;;;;;5070237;28;20482;-68
2023/03/08 00:19:51;;;;;;;3.40;2.27;;;;;;;;;;5069927;28;20445;-68
2023/03/08 00:22:20;;;;;;;6.43;3.20;;;;;;;;;;5070365;28;20452;-69
2023/03/08 00:24:47;;;;;;;6.20;3.27;;;;;;;;;;5070261;28;20435;-69
2023/03/08 00:27:14;;;;;;;7.03;3.30;;;;;;;;;;5070130;28;20439;-68
2023/03/08 00:29:41;;;;;;;7.47;2.80;;;;;;;;;;5071650;28;20444;-68
2023/03/08 00:32:08;;;;;;;5.27;2.93;;;;;;;;;;5072947;28;20446;-68
2023/03/08 00:34:35;;;;;;;5.57;3.90;;;;;;;;;;5073760;28;20458;-68
2023/03/08 00:37:02;;;;;;;4.60;3.23;;;;;;;;;;5071761;28;20441;-68
2023/03/08 00:39:31;;;;;;;4.70;2.60;;;;;;;;;;5073120;28;20971;-68
2023/03/08 00:41:58;;;;;;;9.07;3.33;;;;;;;;;;5072839;28;20441;-68
2023/03/08 00:44:25;;;;;;;5.77;2.37;;;;;;;;;;5073095;28;20465;-68
2023/03/08 00:46:52;;;;;;;4.70;3.43;;;;;;;;;;5071913;28;20448;-68
2023/03/08 00:49:19;;;;;;;5.50;3.60;;;;;;;;;;5066770;28;20434;-68
2023/03/08 00:51:47;;;;;;;5.83;2.50;;;;;;;;;;5072999;28;20449;-68
2023/03/08 00:54:14;;;;;;;8.63;4.00;;;;;;;;;;5073006;28;20476;-68
2023/03/08 00:56:42;;;;;;;6.40;4.00;;;;;;;;;;5072709;28;20451;-68
2023/03/08 00:59:10;;;;;;;6.17;2.93;;;;;;;;;;5072676;28;20447;-68
2023/03/08 01:01:37;;;;;;;3.90;2.90;;;;;;;;;;5073370;28;20438;-68
2023/03/08 01:04:04;;;;;;;7.73;3.83;;;;;;;;;;5073061;28;20452;-68
2023/03/08 01:06:31;;;;;;;5.50;3.80;;;;;;;;;;5072719;28;20482;-68
2023/03/08 01:08:58;;;;;;;4.50;2.87;;;;;;;;;;5072835;28;20791;-67
2023/03/08 01:11:26;;;;;;;6.63;3.10;;;;;;;;;;5073201;28;20464;-68
2023/03/08 01:13:55;;;;;;;8.30;3.83;;;;;;;;;;5072240;28;20484;-68
2023/03/08 01:16:23;;;;;;;4.50;2.80;;;;;;;;;;5072545;28;20451;-68
2023/03/08 01:18:50;;;;;;;7.23;3.47;;;;;;;;;;5072323;28;20439;-68
2023/03/08 01:21:17;;;;;;;5.60;3.13;;;;;;;;;;5072766;28;20437;-68
2023/03/08 01:23:45;;;;;;;5.73;3.40;;;;;;;;;;5073195;28;20458;-68
2023/03/08 01:26:13;;;;;;;3.83;3.10;;;;;;;;;;5072516;28;20920;-68
2023/03/08 01:28:40;;;;;;;3.87;2.27;;;;;;;;;;5072979;28;20787;-68
2023/03/08 01:31:09;;;;;;;6.70;4.27;;;;;;;;;;5072409;28;20445;-68
2023/03/08 01:33:36;;;;;;;5.30;3.50;;;;;;;;;;5072500;28;20488;-68
2023/03/08 01:36:04;;;;;;;5.07;3.43;;;;;;;;;;5071616;28;20449;-68
2023/03/08 01:38:31;;;;;;;4.07;2.93;;;;;;;;;;5072799;28;20437;-68
2023/03/08 01:40:58;;;;;;;6.43;3.27;;;;;;;;;;5071551;28;20438;-68
2023/03/08 01:43:27;;;;;;;6.30;3.60;;;;;;;;;;5072746;28;20446;-68
2023/03/08 01:46:05;;;;;;;5.00;3.73;;;;;;;;;;5071300;28;20470;-68
2023/03/08 01:48:36;;;;;;;6.43;3.40;;;;;;;;;;5072600;28;20437;-68
2023/03/08 01:51:03;;;;;;;4.37;3.10;;;;;;;;;;5071888;28;20437;-68
2023/03/08 01:53:31;;;;;;;7.37;3.23;;;;;;;;;;5072184;28;20494;-68
2023/03/08 01:55:59;;;;;;;8.93;4.20;;;;;;;;;;5071365;28;20476;-68
2023/03/08 01:58:26;;;;;;;5.20;2.50;;;;;;;;;;5071950;28;20445;-68
2023/03/08 02:00:53;;;;;;;8.27;5.17;;;;;;;;;;5071412;28;20923;-68
2023/03/08 02:03:20;;;;;;;9.83;4.53;;;;;;;;;;5072061;28;20528;-68
2023/03/08 02:05:50;;;;;;;5.70;4.20;;;;;;;;;;5070863;28;20443;-68
2023/03/08 02:08:17;;;;;;;5.07;3.70;;;;;;;;;;5071503;28;20747;-69
2023/03/08 02:10:44;;;;;;;5.20;3.00;;;;;;;;;;5071264;28;20930;-68
2023/03/08 02:13:12;;;;;;;10.00;4.30;;;;;;;;;;5071297;28;20484;-68
2023/03/08 02:15:39;;;;;;;6.60;3.60;;;;;;;;;;5068880;28;20463;-69
2023/03/08 02:18:06;;;;;;;4.07;3.43;;;;;;;;;;5070441;28;20458;-69
2023/03/08 02:20:34;;;;;;;7.10;3.60;;;;;;;;;;5071429;28;20433;-69
2023/03/08 02:23:13;;;;;;;6.13;3.37;;;;;;;;;;5070977;28;20530;-68
2023/03/08 02:25:40;;;;;;;5.83;3.43;;;;;;;;;;5071502;28;20471;-69
2023/03/08 02:28:08;;;;;;;5.90;2.70;;;;;;;;;;5071191;28;20437;-68
2023/03/08 02:30:36;;;;;;;6.93;3.00;;;;;;;;;;5076041;28;20441;-69
2023/03/08 02:33:03;;;;;;;6.40;3.03;;;;;;;;;;5070945;28;20496;-69
2023/03/08 02:35:31;;;;;;;8.83;3.33;;;;;;;;;;5070887;28;20912;-69
2023/03/08 02:37:58;;;;;;;6.10;4.80;;;;;;;;;;5070732;28;20442;-69
2023/03/08 02:40:26;;;;;;;6.80;3.07;;;;;;;;;;5071634;28;20449;-68
2023/03/08 02:42:54;;;;;;;5.60;3.60;;;;;;;;;;5070976;28;20449;-68
2023/03/08 02:45:22;;;;;;;9.20;3.30;;;;;;;;;;5070802;28;20469;-68
2023/03/08 02:47:49;;;;;;;4.80;4.30;;;;;;;;;;5070907;28;20437;-69
2023/03/08 02:50:16;;;;;;;4.77;4.10;;;;;;;;;;5071578;28;20767;-68
2023/03/08 02:52:43;;;;;;;8.67;4.50;;;;;;;;;;5070468;28;20438;-68
2023/03/08 02:55:10;;;;;;;6.27;3.03;;;;;;;;;;5070654;28;20488;-68
2023/03/08 02:57:39;;;;;;;8.40;2.90;;;;;;;;;;5071068;28;20442;-68
2023/03/08 03:00:07;;;;;;;8.07;4.27;;;;;;;;;;5070751;28;20861;-68
2023/03/08 03:02:34;;;;;;;5.67;2.93;;;;;;;;;;5070774;28;20461;-68
2023/03/08 03:05:03;;;;;;;6.53;3.27;;;;;;;;;;5070472;28;20448;-68
2023/03/08 03:07:30;;;;;;;5.53;2.93;;;;;;;;;;5070432;28;20470;-68
2023/03/08 03:09:57;;;;;;;4.93;3.53;;;;;;;;;;5070165;28;20456;-68
2023/03/08 03:12:24;;;;;;;5.27;3.20;;;;;;;;;;5070766;28;20923;-68
2023/03/08 03:14:53;;;;;;;3.97;3.10;;;;;;;;;;5069892;28;20497;-68
2023/03/08 03:17:20;;;;;;;4.93;4.00;;;;;;;;;;5070642;28;20449;-68
2023/03/08 03:19:47;;;;;;;6.87;3.60;;;;;;;;;;5070062;28;20887;-68
2023/03/08 03:22:14;;;;;;;8.40;3.37;;;;;;;;;;5071123;28;20448;-68
2023/03/08 03:24:41;;;;;;;5.00;3.53;;;;;;;;;;5071295;28;20782;-68
2023/03/08 03:27:09;;;;;;;4.90;2.90;;;;;;;;;;5070189;28;20452;-68
2023/03/08 03:29:37;;;;;;;6.27;4.13;;;;;;;;;;5070695;28;20444;-68
2023/03/08 03:32:06;;;;;;;4.23;3.30;;;;;;;;;;5070465;28;20457;-69
2023/03/08 03:34:33;;;;;;;2.93;2.63;;;;;;;;;;5070359;28;20966;-68
2023/03/08 03:37:00;;;;;;;4.53;3.07;;;;;;;;;;5069531;28;20445;-68
2023/03/08 03:39:32;;;;;;;6.20;4.20;;;;;;;;;;5070850;28;20786;-68
2023/03/08 03:41:59;;;;;;;4.00;2.90;;;;;;;;;;5070072;28;20914;-68
2023/03/08 03:44:26;;;;;;;5.67;3.17;;;;;;;;;;5070420;28;20796;-67
2023/03/08 03:46:54;;;;;;;6.33;4.20;;;;;;;;;;5069923;28;20444;-68
2023/03/08 03:49:22;;;;;;;4.90;3.10;;;;;;;;;;5070712;28;20454;-68
2023/03/08 03:51:49;;;;;;;6.23;3.00;;;;;;;;;;5070366;28;20465;-68
2023/03/08 03:54:16;;;;;;;5.27;3.10;;;;;;;;;;5070792;28;20484;-68
2023/03/08 03:56:43;;;;;;;12.73;3.97;;;;;;;;;;5070303;28;20444;-68
2023/03/08 03:59:10;;;;;;;5.50;3.43;;;;;;;;;;5070169;28;20453;-68
2023/03/08 04:01:37;;;;;;;6.23;3.03;;;;;;;;;;5070616;28;20462;-68
2023/03/08 04:04:05;;;;;;;4.77;3.07;;;;;;;;;;5070785;28;20452;-68
2023/03/08 04:06:34;;;;;;;3.00;2.70;;;;;;;;;;5073735;28;20441;-68
2023/03/08 04:09:02;;;;;;;4.87;3.57;;;;;;;;;;5073816;28;20463;-68
2023/03/08 04:11:32;;;;;;;4.63;2.60;;;;;;;;;;5074269;28;20438;-68
2023/03/08 04:13:59;;;;;;;4.17;3.07;;;;;;;;;;5073432;28;20501;-67
2023/03/08 04:16:27;;;;;;;2.83;2.53;;;;;;;;;;5073840;28;20464;-68
2023/03/08 04:18:55;;;;;;;7.20;3.30;;;;;;;;;;5073662;28;20796;-68
2023/03/08 04:21:22;;;;;;;5.93;3.20;;;;;;;;;;5074146;28;20448;-70
2023/03/08 04:23:51;;;;;;;5.73;3.30;;;;;;;;;;5073146;28;20469;-68
2023/03/08 04:26:18;;;;;;;7.33;4.93;;;;;;;;;;5073008;28;20540;-68
2023/03/08 04:28:45;;;;;;;3.63;2.47;;;;;;;;;;5070090;28;20450;-68
2023/03/08 04:31:13;;;;;;;7.30;3.50;;;;;;;;;;5073685;28;20447;-68
2023/03/08 04:33:40;;;;;;;2.93;2.50;;;;;;;;;;5073844;28;20835;-68
2023/03/08 04:36:08;;;;;;;3.17;2.80;;;;;;;;;;5072518;28;20449;-68
2023/03/08 04:38:35;;;;;;;4.40;3.50;;;;;;;;;;5073341;28;20449;-68
2023/03/08 04:41:09;;;;;;;4.60;3.43;;;;;;;;;;5073311;28;20438;-68
2023/03/08 04:43:36;;;;;;;5.60;3.53;;;;;;;;;;5073513;28;20480;-68
2023/03/08 04:46:04;;;;;;;10.10;4.57;;;;;;;;;;5072255;28;20469;-68
2023/03/08 04:48:31;;;;;;;4.43;3.33;;;;;;;;;;5073514;28;20450;-68
2023/03/08 04:50:59;;;;;;;7.30;3.97;;;;;;;;;;5060202;28;20449;-68
2023/03/08 04:53:26;;;;;;;4.53;4.13;;;;;;;;;;5073340;28;20444;-68
2023/03/08 04:55:53;;;;;;;5.27;3.60;;;;;;;;;;5072406;28;20439;-68
2023/03/08 04:58:22;;;;;;;5.43;4.10;;;;;;;;;;5073519;28;20783;-68
2023/03/08 05:00:49;;;;;;;4.63;3.20;;;;;;;;;;5072694;28;20437;-68
2023/03/08 05:03:16;;;;;;;7.90;3.80;;;;;;;;;;5073481;28;20464;-68
2023/03/08 05:05:47;;;;;;;5.40;3.50;;;;;;;;;;5072778;28;20442;-68
2023/03/08 05:08:14;;;;;;;7.27;3.43;;;;;;;;;;5073348;28;20437;-68
2023/03/08 05:10:47;;;;;;;5.73;3.90;;;;;;;;;;5073227;28;20441;-68
2023/03/08 05:13:14;;;;;;;5.83;2.77;;;;;;;;;;5072743;28;20445;-68
2023/03/08 05:15:42;;;;;;;8.03;3.13;;;;;;;;;;5070812;28;20910;-68
2023/03/08 05:18:09;;;;;;;9.13;2.97;;;;;;;;;;5071534;28;20440;-68
2023/03/08 05:20:36;;;;;;;3.97;2.10;;;;;;;;;;5073068;28;20436;-68
2023/03/08 05:23:04;;;;;;;7.50;3.50;;;;;;;;;;5072259;28;20437;-68
2023/03/08 05:25:31;;;;;;;5.50;2.47;;;;;;;;;;5072624;28;20526;-68
2023/03/08 05:27:58;;;;;;;6.77;3.40;;;;;;;;;;5071938;28;20438;-68
2023/03/08 05:30:25;;;;;;;4.37;3.67;;;;;;;;;;5071838;28;20457;-70
2023/03/08 05:32:53;;;;;;;5.93;3.30;;;;;;;;;;5072141;28;20444;-68
2023/03/08 05:35:21;;;;;;;7.40;3.73;;;;;;;;;;5071932;28;20481;-68
2023/03/08 05:37:48;;;;;;;6.07;3.50;;;;;;;;;;5071903;28;20436;-68
2023/03/08 05:40:15;;;;;;;7.83;3.73;;;;;;;;;;5072226;28;20958;-67
2023/03/08 05:42:42;;;;;;;5.83;3.20;;;;;;;;;;5072825;28;20441;-68
2023/03/08 05:45:09;;;;;;;7.63;3.90;;;;;;;;;;5071295;28;20469;-68
2023/03/08 05:47:37;;;;;;;7.00;3.80;;;;;;;;;;5072432;28;20456;-68
2023/03/08 05:50:05;;;;;;;4.67;3.57;;;;;;;;;;5064565;28;20437;-68
2023/03/08 05:52:33;;;;;;;8.80;3.90;;;;;;;;;;5073480;28;20433;-69
2023/03/08 05:55:00;;;;;;;5.53;3.70;;;;;;;;;;5071325;28;21079;-68
2023/03/08 05:57:28;;;;;;;6.00;3.50;;;;;;;;;;5072013;28;20448;-68
2023/03/08 05:59:55;;;;;;;7.37;3.97;;;;;;;;;;5071444;28;20472;-69
2023/03/08 06:02:22;;;;;;;5.80;3.30;;;;;;;;;;5072549;28;20455;-68
2023/03/08 06:04:49;;;;;;;6.40;3.60;;;;;;;;;;5071451;28;20445;-67
2023/03/08 06:07:18;;;;;;;5.60;4.00;;;;;;;;;;5071741;28;20447;-67
2023/03/08 06:09:45;;;;;;;6.10;3.83;;;;;;;;;;5072071;28;20441;-67
2023/03/08 06:12:12;;;;;;;7.53;3.80;;;;;;;;;;5072578;28;20469;-67
2023/03/08 06:14:39;;;;;;;5.30;3.97;;;;;;;;;;5072134;28;20484;-72
2023/03/08 06:17:06;;;;;;;8.70;4.80;;;;;;;;;;5071352;28;20911;-70
2023/03/08 06:19:34;;;;;;;6.13;3.57;;;;;;;;;;5072003;28;20430;-70
2023/03/08 06:22:01;;;;;;;9.37;3.97;;;;;;;;;;5071092;28;20457;-70
2023/03/08 06:24:29;;;;;;;4.17;3.03;;;;;;;;;;5066975;28;20447;-71
2023/03/08 06:26:56;;;;;;;8.77;4.47;;;;;;;;;;5069199;28;20955;-71
2023/03/08 06:29:24;;;;;;;6.43;3.60;;;;;;;;;;5069476;28;21034;-68
2023/03/08 06:31:51;;;;;;;15.10;5.17;;;;;;;;;;5070164;28;20452;-68
2023/03/08 06:34:18;;;;;;;6.37;4.47;;;;;;;;;;5070445;28;20485;-68
2023/03/08 06:36:46;;;;;;;5.70;4.27;;;;;;;;;;5068628;28;20962;-70
2023/03/08 06:39:13;;;;;;;7.77;5.50;;;;;;;;;;5069737;28;20453;-71
2023/03/08 06:41:41;;;;;;;6.83;4.10;;;;;;;;;;5069934;28;20451;-70
2023/03/08 06:44:08;;;;;;;11.10;5.10;;;;;;;;;;5069838;28;20456;-70
2023/03/08 06:46:35;;;;;;;9.00;5.50;;;;;;;;;;5068825;28;20778;-70
2023/03/08 06:49:03;;;;;;;9.63;3.80;;;;;;;;;;5071646;28;20467;-70
2023/03/08 06:51:30;;;;;;;10.10;5.90;;;;;;;;;;5082434;28;20472;-70
2023/03/08 06:53:57;;;;;;;10.60;4.90;;;;;;;;;;5084812;28;20433;-70
2023/03/08 06:56:25;;;;;;;10.20;5.30;;;;;;;;;;5083881;28;20473;-70
2023/03/08 06:58:53;;;;;;;7.10;4.67;;;;;;;;;;5079827;28;20453;-70
2023/03/08 07:01:20;;;;;;;7.50;4.50;;;;;;;;;;5072595;28;20441;-70
2023/03/08 07:03:49;;;;;;;8.77;5.47;;;;;;;;;;5069597;28;20426;-69
2023/03/08 07:06:16;;;;;;;11.80;6.17;;;;;;;;;;5068404;28;20450;-70
2023/03/08 07:08:43;;;;;;;5.70;4.17;;;;;;;;;;5068972;28;20808;-70
2023/03/08 07:11:11;;;;;;;8.67;5.30;;;;;;;;;;5067764;28;20473;-70
2023/03/08 07:13:38;;;;;;;10.33;4.97;;;;;;;;;;5069750;28;20805;-70
2023/03/08 07:16:08;;;;;;;13.50;5.13;;;;;;;;;;5068385;28;20495;-70
2023/03/08 07:18:35;;;;;;;8.97;5.47;;;;;;;;;;5065020;28;20800;-70
2023/03/08 07:21:02;;;;;;;13.03;6.03;;;;;;;;;;5068497;28;20453;-70
2023/03/08 07:23:29;;;;;;;9.10;4.30;;;;;;;;;;5068251;28;20847;-71
2023/03/08 07:25:56;;;;;;;7.80;5.10;;;;;;;;;;5068380;28;20873;-71
2023/03/08 07:28:24;;;;;;;10.37;5.23;;;;;;;;;;5068883;28;20434;-70
2023/03/08 07:30:51;;;;;;;7.10;4.10;;;;;;;;;;5068355;28;20452;-70
2023/03/08 07:33:21;;;;;;;5.30;3.73;;;;;;;;;;5068759;28;20442;-71
2023/03/08 07:35:48;;;;;;;6.83;3.70;;;;;;;;;;5067757;28;20576;-69
2023/03/08 07:38:16;;;;;;;5.80;4.20;;;;;;;;;;5069153;28;20939;-70
2023/03/08 07:40:43;;;;;;;5.87;4.40;;;;;;;;;;5072835;28;20472;-71
2023/03/08 07:43:10;;;;;;;7.93;4.57;;;;;;;;;;5072573;28;20441;-71
2023/03/08 07:45:38;;;;;;;10.47;5.30;;;;;;;;;;5072785;28;20481;-70
2023/03/08 07:48:05;;;;;;;8.23;4.80;;;;;;;;;;5071978;28;20445;-70
2023/03/08 07:50:34;;;;;;;7.07;4.50;;;;;;;;;;5073483;28;20916;-71
2023/03/08 07:53:03;;;;;;;19.47;6.70;;;;;;;;;;5071732;28;20441;-71
2023/03/08 07:55:30;;;;;;;9.90;6.60;;;;;;;;;;5072591;28;20473;-71
2023/03/08 07:57:57;;;;;;;9.60;5.97;;;;;;;;;;5071993;28;20471;-70
2023/03/08 08:00:24;;;;;;;6.80;4.93;;;;;;;;;;5070676;28;20444;-71
2023/03/08 08:02:52;;;;;;;6.70;4.37;;;;;;;;;;5071940;28;20475;-70
2023/03/08 08:05:20;;;;;;;8.97;4.40;;;;;;;;;;5071000;28;20818;-70
2023/03/08 08:07:49;;;;;;;5.33;3.90;;;;;;;;;;5071601;28;20450;-69
2023/03/08 08:10:16;;;;;;;6.63;4.93;;;;;;;;;;5072600;28;20464;-70
2023/03/08 08:12:43;;;;;;;7.53;4.57;;;;;;;;;;5072522;28;20455;-70
2023/03/08 08:15:11;;;;;;;8.27;5.03;;;;;;;;;;5069955;28;21118;-70
2023/03/08 08:17:38;;;;;;;10.33;4.60;;;;;;;;;;5070759;28;20450;-72
2023/03/08 08:20:06;;;;;;;6.20;3.63;;;;;;;;;;5072171;28;20445;-73
2023/03/08 08:22:35;;;;;;;8.13;4.50;;;;;;;;;;5072230;28;20456;-69
2023/03/08 08:25:04;;;;;;;6.97;4.30;;;;;;;;;;5071025;28;20448;-71
2023/03/08 08:27:31;;;;;;;5.80;3.90;;;;;;;;;;5072156;28;21193;-73
2023/03/08 08:29:58;;;;;;;5.30;3.50;;;;;;;;;;5070697;28;20445;-74
2023/03/08 08:32:25;;;;;;;5.17;3.30;;;;;;;;;;5069848;28;20444;-71
2023/03/08 08:34:52;;;;;;;6.33;3.80;;;;;;;;;;5069454;28;20490;-71
2023/03/08 08:37:19;;;;;;;7.57;3.63;;;;;;;;;;5071896;28;20445;-72
2023/03/08 08:39:46;;;;;;;6.40;4.10;;;;;;;;;;5069267;28;20445;-71
2023/03/08 08:42:15;;;;;;;14.07;5.00;;;;;;;;;;5070982;28;20442;-71
2023/03/08 08:44:42;;;;;;;10.20;4.57;;;;;;;;;;5071527;28;20481;-71
2023/03/08 08:47:10;;;;;;;5.73;3.80;;;;;;;;;;5065110;28;20460;-71
2023/03/08 08:49:37;;;;;;;8.20;4.47;;;;;;;;;;5072107;28;20442;-70
2023/03/08 08:52:04;;;;;;;7.90;4.17;;;;;;;;;;5070757;28;20788;-70
2023/03/08 08:54:32;;;;;;;5.03;3.80;;;;;;;;;;5070245;28;20448;-71
2023/03/08 08:56:59;;;;;;;8.97;4.63;;;;;;;;;;5071048;28;20877;-70
2023/03/08 08:59:28;;;;;;;9.93;5.00;;;;;;;;;;5071440;28;20445;-70
2023/03/08 09:01:55;;;;;;;7.17;5.10;;;;;;;;;;5071558;28;20441;-70
2023/03/08 09:04:22;;;;;;;8.00;4.00;;;;;;;;;;5071710;28;20442;-70
2023/03/08 09:06:49;;;;;;;4.57;3.90;;;;;;;;;;5070428;28;20815;-70
2023/03/08 09:09:18;;;;;;;9.73;5.27;;;;;;;;;;5072102;28;20445;-70
2023/03/08 09:11:46;;;;;;;12.03;5.20;;;;;;;;;;5071151;28;20445;-70
2023/03/08 09:14:13;;;;;;;14.20;5.13;;;;;;;;;;5071352;28;20896;-70
2023/03/08 09:16:42;;;;;;;7.20;4.50;;;;;;;;;;5080815;28;20478;-71
2023/03/08 09:19:09;;;;;;;10.77;4.80;;;;;;;;;;5070726;28;20457;-71
2023/03/08 09:21:36;;;;;;;8.63;5.20;;;5.10;3.30;;;;;;5071495;28;20448;-70
2023/03/08 09:24:06;;;;;;;8.77;4.87;;;7.30;1.00;;;;;;5070268;28;20776;-71
2023/03/08 09:26:33;;;;;;;6.50;4.03;;;7.10;99.90;;;;;;5071218;28;20434;-71
2023/03/08 09:29:03;;;;;;;6.07;3.87;;;7.20;99.90;;;;;;5070118;28;20545;-72
2023/03/08 09:31:31;;;;;;;7.93;5.40;;;7.20;99.90;;;;;;5058901;28;20521;-81
2023/03/08 09:33:59;;;;;;;9.97;5.37;;;7.10;99.90;;;;;;5071214;28;20452;-74
2023/03/08 09:36:28;;;;;;;10.97;5.30;;;7.10;99.90;;;;;;5069725;28;20800;-67
2023/03/08 09:38:55;;;;;;;8.60;4.80;;;7.10;99.90;;;;;;5070246;28;20488;-67
2023/03/08 09:41:50;;;;;;;9.30;5.77;;;7.20;99.90;;;;;;5070860;28;20449;-67
2023/03/08 09:44:42;;;;;;;8.97;4.60;;;7.30;99.90;;;;;;5034817;28;20460;-67
2023/03/08 09:47:16;;;;;;;6.10;4.07;;;7.40;99.90;;;;;;5065559;28;21205;-67
2023/03/08 09:49:48;;;;;;;7.13;5.20;;;7.40;99.90;;;;;;5070310;28;20442;-67
2023/03/08 09:52:26;;;;;;;5.40;4.10;;;7.50;99.90;;;;;;5070906;28;20790;-66
2023/03/08 09:54:53;;;;;;;13.23;5.50;;;7.60;99.90;;;;;;5068281;28;20742;-67
2023/03/08 09:57:24;;;;;;;4.50;3.90;;;7.80;99.90;;;;;;5070569;28;20481;-67
2023/03/08 09:59:54;;;;;;;11.27;5.27;;;7.90;99.90;;;;;;5068920;28;20456;-67
2023/03/08 10:02:33;;;;;;;7.37;4.37;;;7.90;99.90;;;;;;5065673;28;20441;-67
2023/03/08 10:05:07;;;;;;;10.77;4.67;;;8.00;99.90;;;;;;5069585;28;20439;-68
2023/03/08 10:07:44;;;;;;;8.60;5.20;;;8.30;99.90;;;;;;5070784;28;20892;-67
2023/03/08 10:10:20;;;;;;;9.27;4.80;;;8.40;99.90;;;;;;5069195;28;20955;-67
2023/03/08 10:12:58;;;;;;;5.60;3.90;;;8.30;99.90;;;;;;5069046;28;20468;-68
2023/03/08 10:15:28;;;;;;;4.27;3.20;;;8.40;99.90;;;;;;5069869;28;20463;-67
2023/03/08 10:18:00;;;;;;;5.50;4.03;;;8.40;99.90;;;;;;5069127;28;20473;-68
2023/03/08 10:20:31;;;;;;;3.87;3.10;;;8.50;99.90;;;;;;5070346;28;20446;-68
2023/03/08 10:22:59;;;;;;;4.83;3.07;;;;;;;;;;5065866;28;20438;-68
2023/03/08 10:25:30;;;;;;;6.93;2.70;;;8.70;99.90;;;;;;5069742;28;20453;-66
2023/03/08 10:27:57;;;;;;;4.53;2.60;;;;;;;;;;5069244;28;20845;-67
2023/03/08 10:30:26;;;;;;;4.80;2.50;;;;;;;;;;5069318;28;20448;-66
2023/03/08 10:32:57;;;;;;;2.90;2.23;;;;;;;;;;5068471;28;20445;-67
2023/03/08 10:35:33;;;;;;;3.80;2.80;;;;;;;;;;5068613;28;20441;-67
2023/03/08 10:38:00;;;;;;;4.70;2.67;;;;;;;;;;5069571;28;20444;-68
2023/03/08 10:40:28;;;;;;;10.40;2.63;;;;;;;;;;5070361;28;20437;-68
2023/03/08 10:42:59;;;;;;;2.87;2.10;;;;;;;;;;5068960;28;20783;-68
2023/03/08 10:45:28;;;;;;;5.00;2.47;;;;;;;;;;5069709;28;20520;-67
2023/03/08 10:47:55;;;;;;;2.27;1.60;;;;;;;;;;5068912;28;20453;-68
2023/03/08 10:50:23;;;;;;;4.53;2.27;;;;;;;;;;5070207;28;20441;-67
2023/03/08 10:52:52;;;;;;;3.80;2.83;;;;;;;;;;5067659;28;20453;-68
2023/03/08 10:55:20;;;;;;;3.43;2.70;;;;;;;;;;5063035;28;21003;-68
2023/03/08 10:57:50;;;;;;;3.63;1.77;;;;;;;;;;5067336;28;20441;-68
2023/03/08 11:00:28;;;;;;;3.50;1.67;;;;;;;;;;5065878;28;20921;-68
2023/03/08 11:03:02;;;;;;;2.10;1.20;;;;;;;;;;5066485;28;20448;-67
2023/03/08 11:05:29;;;;;;;2.63;1.27;;;8.80;99.90;;;;;;5065983;28;20449;-69
2023/03/08 11:07:58;;;;;;;2.03;1.80;;;;;;;;;;5066165;28;20932;-72
2023/03/08 11:10:26;;;;;;;2.33;1.57;;;;;;;;;;5067542;28;21222;-68
2023/03/08 11:13:01;;;;;;;2.53;1.70;;;;;;;;;;5064564;28;20457;-69
2023/03/08 11:15:30;;;;;;;2.00;1.70;;;;;;;;;;5056726;28;20445;-69
2023/03/08 11:18:00;;;;;;;5.70;0.93;;;;;;;;;;5065513;28;20442;-68
2023/03/08 11:20:29;;;;;;;1.00;0.73;;;;;;;;;;5065532;28;20440;-68
2023/03/08 11:23:05;;;;;;;1.53;0.87;;;;;;;;;;5066082;28;20434;-68
2023/03/08 11:25:38;;;;;;;1.10;0.87;;;10.40;1.00;;;;;;5066369;28;20448;-68
2023/03/08 11:28:19;;;;;;;1.40;0.67;;;11.10;1.00;;;;;;5066126;28;20535;-68
2023/03/08 11:30:51;;;;;;;1.20;0.80;;;;;;;;;;5065735;28;20444;-68
2023/03/08 11:33:26;;;;;;;1.23;0.70;;;;;;;;;;5067310;28;20434;-68
2023/03/08 11:35:56;;;;;;;1.57;0.70;;;;;;;;;;5065363;28;21006;-68
2023/03/08 11:38:27;;;;;;;1.03;0.90;;;10.90;1.00;;;;;;5067728;28;20453;-68
2023/03/08 11:41:01;;;;;;;1.33;0.80;;;11.30;1.00;;;;;;5066587;28;20437;-68
2023/03/08 11:43:46;;;;;;;2.30;1.43;;;11.30;1.00;;;;;;5065298;28;20444;-68
2023/03/08 11:46:17;;;;;;;1.67;0.80;;;;;;;;;;5055043;28;20469;-68
2023/03/08 11:48:56;;;;;;;1.33;0.80;;;;;;;;;;5066014;28;20437;-68
2023/03/08 11:51:27;;;;;;;0.90;0.53;;;;;;;;;;5057210;28;20464;-68
2023/03/08 11:54:00;;;;;;;1.40;1.20;;;;;;;;;;5065020;28;20442;-68
2023/03/08 11:56:35;;;;;;;1.37;1.00;;;;;;;;;;5058846;28;20466;-68
2023/03/08 11:59:04;;;;;;;0.70;0.60;;;;;;;;;;5065605;28;20445;-68
2023/03/08 12:01:38;;;;;;;0.80;0.70;;;11.50;1.00;;;;;;5066349;28;20449;-68
2023/03/08 12:04:11;;;;;;;1.00;0.70;;;11.70;1.00;;;;;;5065957;28;20468;-69
2023/03/08 12:06:40;;;;;;;0.73;0.60;;;11.80;1.00;;;;;;5066020;28;20472;-68
2023/03/08 12:09:16;;;;;;;0.90;0.53;;;11.80;1.00;;;;;;5066307;28;21233;-68
2023/03/08 12:11:45;;;;;;;0.93;0.70;;;;;;;;;;5064890;28;20448;-68
2023/03/08 12:14:16;;;;;;;1.97;0.80;;;;;;;;;;5065590;28;20441;-68
2023/03/08 12:16:46;;;;;;;1.57;0.90;;;;;;;;;;5068151;28;20862;-67
2023/03/08 12:19:16;;;;;;;0.73;0.63;;;;;;;;;;5068429;28;20444;-67
2023/03/08 12:21:46;;;;;;;0.90;0.70;;;;;;;;;;5069053;28;20448;-67
2023/03/08 12:24:21;;;;;;;1.13;0.67;;;;;;;;;;5070015;28;20440;-67
2023/03/08 12:26:50;;;;;;;0.80;0.53;;;;;;;;;;5068665;28;20520;-67
2023/03/08 12:29:19;;;;;;;1.07;0.97;;;;;;;;;;5070616;28;20468;-66
2023/03/08 12:31:47;;;;;;;0.70;0.60;;;;;;;;;;5071293;28;20449;-67
2023/03/08 12:34:26;;;;;;;1.03;0.60;;;;;;;;;;5065739;28;20449;-66
2023/03/08 12:36:53;;;;;;;1.00;0.83;;;;;;;;;;5067168;28;20507;-67
2023/03/08 12:39:26;;;;;;;1.20;0.60;;;;;;;;;;5070373;28;20448;-67
2023/03/08 12:41:58;;;;;;;0.73;0.50;;;;;;;;;;5069808;28;20449;-67
2023/03/08 12:44:26;;;;;;;1.83;0.67;;;;;;;;;;5069128;28;20442;-67
2023/03/08 12:46:54;;;;;;;0.70;0.70;;;;;;;;;;5069772;28;20449;-67
2023/03/08 12:49:23;;;;;;;1.13;0.70;;;;;;;;;;5069203;28;20448;-68
2023/03/08 12:51:57;;;;;;;4.13;0.67;;;;;;;;;;5069320;28;20963;-67
2023/03/08 12:54:28;;;;;;;0.80;0.67;;;;;;;;;;5067395;28;21306;-67
2023/03/08 12:56:56;;;;;;;0.97;0.77;;;;;;;;;;5069192;28;20496;-67
2023/03/08 12:59:27;;;;;;;1.03;0.77;;;;;;;;;;5068727;28;20453;-67
2023/03/08 13:02:00;;;;;;;0.70;0.60;;;;;;;;;;5069383;28;20434;-67
2023/03/08 13:04:29;;;;;;;1.10;0.80;;;;;;;;;;5059984;28;20481;-67
2023/03/08 13:07:16;;;;;;;0.90;0.70;;;;;;;;;;5067295;28;20446;-67
2023/03/08 13:09:48;;;;;;;1.40;0.87;;;;;;;;;;5069559;28;20449;-67
2023/03/08 13:12:22;;;;;;;0.70;0.50;;;;;;;;;;5068308;28;20441;-67
2023/03/08 13:15:00;;;;;;;1.83;0.67;;;;;;;;;;5068101;28;20453;-69
2023/03/08 13:17:32;;;;;;;1.13;0.67;;;;;;;;;;5065042;28;20457;-67
2023/03/08 13:20:01;;;;;;;1.00;0.60;;;;;;;;;;5068401;28;20446;-67
2023/03/08 13:22:32;;;;;;;1.83;1.40;;;;;;;;;;5069595;28;20449;-67
2023/03/08 13:25:04;;;;;;;1.93;0.80;;;;;;;;;;5067568;28;20445;-67
2023/03/08 13:27:38;;;;;;;1.20;0.80;;;;;;;;;;5063535;28;20453;-67
2023/03/08 13:30:16;;;;;;;1.10;0.60;;;;;;;;;;5067805;28;20438;-67
2023/03/08 13:32:44;;;;;;;0.67;0.53;;;;;;;;;;5070241;28;20502;-66
2023/03/08 13:35:14;;;;;;;0.80;0.60;;;;;;;;;;5070588;28;20445;-67
2023/03/08 13:37:41;;;;;;;1.23;0.80;;;;;;;;;;5068918;28;21046;-67
2023/03/08 13:40:17;;;;;;;1.17;0.70;;;;;;;;;;5070582;28;20449;-67
2023/03/08 13:42:53;;;;;;;0.83;0.73;;;;;;;;;;5069816;28;20959;-67
2023/03/08 13:45:20;;;;;;;0.83;0.83;;;;;;;;;;5064990;28;20822;-67
2023/03/08 13:47:48;;;;;;;1.10;0.77;;;;;;;;;;5069521;28;20912;-68
2023/03/08 13:50:19;;;;;;;0.80;0.77;;;;;;;;;;5070869;28;20458;-66
2023/03/08 13:52:47;;;;;;;0.93;0.70;;;;;;;;;;5071121;28;20453;-67
2023/03/08 13:55:19;;;;;;;0.70;0.57;;;;;;;;;;5069596;28;20472;-67
2023/03/08 13:57:50;;;;;;;2.13;0.67;;;;;;;;;;5069652;28;20464;-67
2023/03/08 14:00:24;;;;;;;0.70;0.47;;;;;;;;;;5069674;28;20511;-67
2023/03/08 14:02:51;;;;;;;0.80;0.60;;;;;;;;;;5070188;28;20534;-68
2023/03/08 14:05:19;;;;;;;0.80;0.60;;;;;;;;;;5069894;28;20457;-68
2023/03/08 14:07:56;;;;;;;0.70;0.50;;;;;;;;;;5070188;28;20452;-68
2023/03/08 14:10:26;;;;;;;0.77;0.60;;;;;;;;;;5069627;28;20967;-68
2023/03/08 14:12:54;;;;;;;0.90;0.50;;;;;;;;;;5069170;28;20437;-68
2023/03/08 14:15:22;;;;;;;0.70;0.60;;;;;;;;;;5069996;28;20453;-68
2023/03/08 14:17:49;;;;;;;1.27;0.60;;;;;;;;;;5068356;28;20485;-68
2023/03/08 14:20:18;;;;;;;0.70;0.60;;;;;;;;;;5070431;28;20795;-67
2023/03/08 14:22:47;;;;;;;0.70;0.60;;;;;;;;;;5070296;28;20453;-68
2023/03/08 14:25:25;;;;;;;0.70;0.50;;;11.80;1.00;;;;;;5068947;28;20441;-67
2023/03/08 14:27:52;;;;;;;0.90;0.77;;;;;;;;;;5069830;28;20443;-68
2023/03/08 14:30:20;;;;;;;0.70;0.60;;;;;;;;;;5069024;28;20442;-67
2023/03/08 14:32:56;;;;;;;1.63;0.60;;;;;;;;;;5068973;28;20448;-68
2023/03/08 14:35:25;;;;;;;1.57;0.80;;;13.90;99.90;;;;;;5068971;28;20530;-68
2023/03/08 14:37:54;;;;;;;0.70;0.50;;;13.60;99.90;;;;;;5068225;28;20830;-68